Terminal Aerodrome Forecast
Issued by NWS Flagstaff, AZ

Home | Current Version | Previous Version | Text Only | Print | Product List | Glossary On
Versions: 1 2 3 4 5 6 7 8 9 10 11 12 13 14 15
000
FTUS45 KFGZ 190520
TAFINW
TAF
KINW 190520Z 1906/2006 22006KT P6SM FEW150 BKN200
     FM191500 20015G20KT P6SM BKN050 BKN100 PROB30 1916/1920 5SM
      -SHRA OVC050
     FM200100 20013KT P6SM -SHRA OVC050=

USA.gov is the U.S. government's official web portal to all federal, state and local government web resources and services.